Terminal Aerodrome Forecast
Issued by NWS Wichita, KS

Home | Current Version | Previous Version | Graphics & Text | Print | Product List | Glossary On
Versions: 1 2 3 4 5 6 7 8 9 10 11 12 13 14 15 16 17 18 19
000
FTUS43 KICT 202300
TAFICT
TAF
KICT 202322Z 2100/2124 05005KT P6SM SKC
     FM210800 09005KT 4SM BR SKC
     FM211100 10005KT 3SM BR SKC
      TEMPO 2111/2114 1SM BR
     FM211400 11007KT 5SM BR SCT035
     FM211500 15009KT P6SM BKN035=

USA.gov is the U.S. government's official web portal to all federal, state and local government web resources and services.